Time;durP1;ratioP1;P1;durP2;ratioP2;P2;SDS_P1;SDS_P2;PMS_P1;PMS_P2;Temp;Humidity;BMP_temperature;BMP_pressure;BME280_temperature;BME280_humidity;BME280_pressure;Samples;Min_cycle;Max_cycle;Signal;HPM_P1;HPM_P2
2023/09/17 00:01:23;;;;;;;0.80;0.40;;;;;;;-143.84;91.22;45100.47;5091734;28;21026;-62
2023/09/17 00:03:51;;;;;;;0.80;0.40;;;;;;;-143.84;91.22;45104.28;5092935;28;21253;-62
2023/09/17 00:06:18;;;;;;;0.80;0.40;;;;;;;-143.84;91.18;45117.63;5096751;28;20460;-62
2023/09/17 00:08:47;;;;;;;0.80;0.40;;;;;;;-143.84;91.04;45100.47;5092002;28;20459;-62
2023/09/17 00:11:14;;;;;;;0.80;0.40;;;;;;;-143.84;90.86;45134.75;5093278;28;20525;-62
2023/09/17 00:13:41;;;;;;;0.80;0.30;;;;;;;-143.84;90.75;45111.91;5092603;28;20432;-62
2023/09/17 00:16:10;;;;;;;0.80;0.40;;;;;;;-143.84;90.72;45136.66;5093119;28;20439;-62
2023/09/17 00:18:37;;;;;;;0.80;0.40;;;;;;;-143.84;90.68;45117.63;5091213;28;20486;-62
2023/09/17 00:21:06;;;;;;;0.80;0.40;;;;;;;-143.84;90.04;45102.38;5091573;28;20571;-62
2023/09/17 00:23:33;;;;;;;0.80;0.40;;;;;;;-143.84;89.61;45174.75;5094946;28;20954;-62
2023/09/17 00:26:01;;;;;;;0.80;0.30;;;;;;;-143.84;90.01;45106.19;5090029;28;20451;-62
2023/09/17 00:28:29;;;;;;;0.80;0.30;;;;;;;-143.84;90.04;45113.81;5099456;28;20869;-62
2023/09/17 00:30:56;;;;;;;0.80;0.40;;;;;;;-143.84;90.14;45129.03;5096504;28;20476;-62
2023/09/17 00:33:23;;;;;;;0.80;0.40;;;;;;;-143.84;90.28;45119.53;5096846;28;20451;-62
2023/09/17 00:35:50;;;;;;;0.80;0.40;;;;;;;-143.84;90.39;45106.19;5098007;28;20446;-62
2023/09/17 00:38:17;;;;;;;0.80;0.30;;;;;;;-143.84;90.67;45132.84;5094122;28;20443;-62
2023/09/17 00:40:44;;;;;;;0.80;0.40;;;;;;;-143.84;90.61;45110.00;5097022;28;20826;-62
2023/09/17 00:43:13;;;;;;;0.80;0.30;;;;;;;-143.84;90.62;45111.91;5099733;28;20875;-62
2023/09/17 00:45:43;;;;;;;0.80;0.30;;;;;;;-143.84;90.48;45123.34;5096438;28;20493;-62
2023/09/17 00:48:12;;;;;;;0.80;0.40;;;;;;;-143.84;90.26;45110.00;5096250;28;20887;-62
2023/09/17 00:50:40;;;;;;;0.80;0.40;;;;;;;-143.84;90.34;45119.53;5092158;28;20482;-62
2023/09/17 00:53:08;;;;;;;0.80;0.40;;;;;;;-143.84;90.27;45125.22;5092891;28;20509;-62
2023/09/17 00:55:35;;;;;;;0.80;0.50;;;;;;;-143.84;90.09;45123.34;5099921;28;20447;-62
2023/09/17 00:58:04;;;;;;;0.80;0.40;;;;;;;-143.84;90.00;45111.91;5094607;28;20979;-62
2023/09/17 01:00:38;;;;;;;0.80;0.40;;;;;;;-143.84;89.65;45102.38;5098981;28;20448;-62
2023/09/17 01:03:06;;;;;;;0.80;0.40;;;;;;;-143.84;89.65;45113.81;5097519;28;20534;-62
2023/09/17 01:05:42;;;;;;;0.80;0.40;;;;;;;-143.84;89.78;45110.00;5092171;28;20456;-62
2023/09/17 01:08:10;;;;;;;0.80;0.40;;;;;;;-143.84;89.78;45115.72;5095560;28;20497;-62
2023/09/17 01:10:40;;;;;;;0.80;0.40;;;;;;;-143.84;89.72;45079.53;5096382;28;20553;-62
2023/09/17 01:13:08;;;;;;;0.80;0.40;;;;;;;-143.84;89.55;45129.03;5096551;28;20499;-62
2023/09/17 01:15:37;;;;;;;0.80;0.40;;;;;;;-143.84;89.46;45108.09;5098993;28;20490;-62
2023/09/17 01:18:07;;;;;;;0.80;0.30;;;;;;;-143.84;89.38;45121.44;5097433;28;20491;-62
2023/09/17 01:20:41;;;;;;;0.80;0.30;;;;;;;-143.84;89.31;45113.81;5098159;28;20448;-62
2023/09/17 01:23:18;;;;;;;0.80;0.40;;;;;;;-143.84;89.23;45094.78;5100333;28;20442;-62
2023/09/17 01:25:55;;;;;;;0.80;0.33;;;;;;;-143.84;89.13;45117.63;5099347;28;20565;-62
2023/09/17 01:28:24;;;;;;;0.80;0.30;;;;;;;-143.84;89.80;45123.34;5090947;28;20458;-62
2023/09/17 01:30:52;;;;;;;0.80;0.30;;;;;;;-143.84;89.73;45104.28;5089943;28;21084;-62
2023/09/17 01:33:19;;;;;;;0.80;0.40;;;;;;;-143.84;89.92;45129.03;5098493;28;20443;-62
2023/09/17 01:36:08;;;;;;;0.80;0.40;;;;;;;-143.84;89.90;45148.09;5099120;28;20443;-62
2023/09/17 01:38:47;;;;;;;0.80;0.40;;;;;;;-143.84;90.21;45106.19;5095167;28;20530;-62
2023/09/17 01:41:15;;;;;;;0.80;0.40;;;;;;;-143.84;90.34;45153.81;5095246;28;20459;-62
2023/09/17 01:43:45;;;;;;;0.80;0.30;;;;;;;-143.84;90.44;45106.19;5097210;28;20475;-62
2023/09/17 01:46:12;;;;;;;0.80;0.40;;;;;;;-143.84;90.63;45123.34;5101172;28;20468;-62
2023/09/17 01:48:42;;;;;;;0.80;0.40;;;;;;;-143.84;90.81;45117.63;5098587;28;20937;-62
2023/09/17 01:51:11;;;;;;;0.80;0.40;;;;;;;-143.84;90.95;45113.81;5102086;28;20485;-62
2023/09/17 01:53:39;;;;;;;0.80;0.30;;;;;;;-143.84;91.06;45111.91;5094236;28;20440;-62
2023/09/17 01:56:06;;;;;;;0.80;0.30;;;;;;;-143.84;90.70;45127.13;5102573;28;20446;-62
2023/09/17 01:58:34;;;;;;;0.80;0.30;;;;;;;-143.84;90.77;45134.75;5099763;28;20945;-62
2023/09/17 02:01:03;;;;;;;0.80;0.40;;;;;;;-143.84;90.73;45123.34;5103102;28;20828;-62
2023/09/17 02:03:30;;;;;;;0.80;0.30;;;;;;;-143.84;90.84;45138.56;5095090;28;20863;-62
2023/09/17 02:05:58;;;;;;;0.80;0.40;;;;;;;-143.84;90.94;45119.53;5098480;28;20534;-62
2023/09/17 02:08:26;;;;;;;0.80;0.37;;;;;;;-143.84;90.78;45125.22;5100837;28;20942;-62
2023/09/17 02:10:53;;;;;;;0.80;0.30;;;;;;;-143.84;90.89;45102.38;5101489;28;20582;-62
2023/09/17 02:13:20;;;;;;;0.80;0.40;;;;;;;-143.84;90.73;45123.34;5101811;28;21309;-62
2023/09/17 02:15:47;;;;;;;0.80;0.50;;;;;;;-143.84;90.58;45104.28;5099986;28;20449;-62
2023/09/17 02:18:16;;;;;;;0.80;0.30;;;;;;;-143.84;90.27;45111.91;5092455;28;20479;-62
2023/09/17 02:20:44;;;;;;;0.80;0.40;;;;;;;-143.84;90.45;45127.13;5098077;28;20815;-62
2023/09/17 02:23:11;;;;;;;0.80;0.33;;;;;;;-143.84;90.49;45125.22;5091383;28;20501;-62
2023/09/17 02:25:38;;;;;;;0.80;0.40;;;;;;;-143.84;90.38;45125.22;5097858;28;20439;-62
2023/09/17 02:28:05;;;;;;;0.80;0.40;;;;;;;-143.84;90.48;45134.75;5099560;28;20529;-62
2023/09/17 02:30:33;;;;;;;0.80;0.40;;;;;;;-143.84;90.61;45106.19;5100755;28;20471;-62
2023/09/17 02:33:00;;;;;;;0.80;0.40;;;;;;;-143.84;90.93;45121.44;5102054;28;20863;-62
2023/09/17 02:35:28;;;;;;;0.80;0.30;;;;;;;-143.84;90.88;45106.19;5101161;28;20787;-62
2023/09/17 02:37:55;;;;;;;0.80;0.30;;;;;;;-143.84;91.06;45125.22;5101204;28;20439;-61
2023/09/17 02:40:24;;;;;;;0.80;0.37;;;;;;;-143.84;91.02;45125.22;5098308;28;20447;-61
2023/09/17 02:42:51;;;;;;;0.80;0.30;;;;;;;-143.84;91.28;45108.09;5102351;28;20994;-62
2023/09/17 02:45:19;;;;;;;0.80;0.30;;;;;;;-143.84;91.23;45129.03;5098949;28;20502;-62
2023/09/17 02:47:46;;;;;;;0.80;0.40;;;;;;;-143.84;91.41;45130.94;5101994;28;20443;-62
2023/09/17 02:50:13;;;;;;;0.80;0.30;;;;;;;-143.84;91.17;45127.13;5099366;28;20539;-62
2023/09/17 02:52:41;;;;;;;0.80;0.40;;;;;;;-143.84;90.92;45123.34;5101183;28;20443;-62
2023/09/17 02:55:09;;;;;;;0.80;0.30;;;;;;;-143.84;90.50;45115.72;5099008;28;20481;-62
2023/09/17 02:57:36;;;;;;;0.80;0.40;;;;;;;-143.84;90.15;45142.38;5096257;28;20497;-62
2023/09/17 03:00:04;;;;;;;0.80;0.40;;;;;;;-143.84;89.74;45094.78;5101184;28;20455;-62
2023/09/17 03:02:32;;;;;;;0.80;0.30;;;;;;;-143.84;89.54;45121.44;5099477;28;20450;-62
2023/09/17 03:04:59;;;;;;;0.80;0.40;;;;;;;-143.84;89.38;45130.94;5101964;28;20466;-61
2023/09/17 03:07:27;;;;;;;0.80;0.30;;;;;;;-143.84;89.22;45117.63;5096574;28;20462;-62
2023/09/17 03:09:59;;;;;;;0.80;0.40;;;;;;;-143.84;88.94;45119.53;5097894;28;20476;-61
2023/09/17 03:12:27;;;;;;;0.80;0.40;;;;;;;-143.84;88.59;45098.56;5093927;28;20536;-62
2023/09/17 03:14:54;;;;;;;0.80;0.40;;;;;;;-143.84;88.58;45129.03;5101863;28;20531;-62
2023/09/17 03:17:21;;;;;;;0.80;0.40;;;;;;;-143.84;88.30;45132.84;5095256;28;20528;-62
2023/09/17 03:19:48;;;;;;;0.80;0.30;;;;;;;-143.84;88.05;45110.00;5100536;28;20520;-62
2023/09/17 03:22:16;;;;;;;0.80;0.30;;;;;;;-143.84;87.78;45119.53;5099278;28;20887;-62
2023/09/17 03:24:43;;;;;;;0.80;0.37;;;;;;;-143.84;87.48;45127.13;5098081;28;20456;-62
2023/09/17 03:27:12;;;;;;;0.80;0.40;;;;;;;-143.84;87.25;45077.63;5095121;28;20440;-62
2023/09/17 03:29:39;;;;;;;0.80;0.30;;;;;;;-143.84;87.35;45096.66;5098303;28;21024;-62
2023/09/17 03:32:06;;;;;;;0.90;0.70;;;;;;;-143.84;87.30;45130.94;5096948;28;20498;-62
2023/09/17 03:34:34;;;;;;;0.80;0.40;;;;;;;-143.84;87.25;45104.28;5097825;28;20496;-61
2023/09/17 03:37:01;;;;;;;0.80;0.37;;;;;;;-143.84;87.36;45117.63;5100940;28;20504;-62
2023/09/17 03:39:28;;;;;;;0.80;0.40;;;;;;;-143.84;87.11;45140.47;5096712;28;20447;-62
2023/09/17 03:41:55;;;;;;;0.80;0.40;;;;;;;-143.84;86.81;45111.91;5097902;28;20451;-62
2023/09/17 03:44:24;;;;;;;0.80;0.30;;;;;;;-143.84;86.44;45125.22;5098007;28;21013;-62
2023/09/17 03:46:51;;;;;;;0.80;0.30;;;;;;;-143.84;86.21;45085.25;5094880;28;20505;-62
2023/09/17 03:49:23;;;;;;;0.80;0.30;;;;;;;-143.84;85.85;45100.47;5099039;28;20539;-61
2023/09/17 03:51:50;;;;;;;0.80;0.30;;;;;;;-143.84;85.34;45130.94;5099774;28;21076;-62
2023/09/17 03:54:17;;;;;;;0.80;0.30;;;;;;;-143.84;85.38;45123.34;5098112;28;20479;-62
2023/09/17 03:56:45;;;;;;;0.80;0.40;;;;;;;-143.84;85.40;45100.47;5098044;28;20447;-62
2023/09/17 03:59:11;;;;;;;0.80;0.40;;;;;;;-143.84;85.14;45108.09;5097584;28;20543;-61
2023/09/17 04:01:40;;;;;;;0.80;0.33;;;;;;;-143.84;84.84;45111.91;5100530;28;20451;-64
2023/09/17 04:04:07;;;;;;;0.80;0.30;;;;;;;-143.84;84.80;45125.22;5098049;28;20853;-62
2023/09/17 04:06:35;;;;;;;0.80;0.40;;;;;;;-143.84;84.77;45125.22;5098168;28;20440;-62
2023/09/17 04:09:02;;;;;;;1.57;0.63;;;;;;;-143.84;84.55;45111.91;5093043;28;20989;-62
2023/09/17 04:11:29;;;;;;;0.80;0.30;;;;;;;-143.84;84.43;45110.00;5098514;28;20506;-62
2023/09/17 04:13:56;;;;;;;0.87;0.60;;;;;;;-143.84;84.42;45121.44;5099694;28;20500;-62
2023/09/17 04:16:24;;;;;;;0.80;0.40;;;;;;;-143.84;83.92;45079.53;5097845;28;20448;-62
2023/09/17 04:18:53;;;;;;;0.80;0.30;;;;;;;-143.84;83.83;45111.91;5099659;28;20474;-62
2023/09/17 04:21:20;;;;;;;0.80;0.30;;;;;;;-143.84;83.86;45096.66;5096892;28;20482;-62
2023/09/17 04:23:47;;;;;;;0.80;0.40;;;;;;;-143.84;83.44;45123.34;5092329;28;20473;-62
2023/09/17 04:26:15;;;;;;;0.80;0.30;;;;;;;-143.84;83.26;45092.88;5097346;28;20508;-62
2023/09/17 04:28:43;;;;;;;0.80;0.53;;;;;;;-143.84;82.93;45130.94;5093395;28;20440;-62
2023/09/17 04:31:10;;;;;;;0.80;0.37;;;;;;;-143.84;82.83;45119.53;5096804;28;20487;-62
2023/09/17 04:33:37;;;;;;;0.80;0.40;;;;;;;-143.84;82.18;45119.53;5095330;28;20892;-62
2023/09/17 04:36:06;;;;;;;0.80;0.40;;;;;;;-143.84;82.12;45090.97;5096628;28;20455;-61
2023/09/17 04:38:33;;;;;;;0.80;0.30;;;;;;;-143.84;81.67;45121.44;5091352;28;20440;-62
2023/09/17 04:41:02;;;;;;;0.80;0.30;;;;;;;-143.84;81.41;45106.19;5099768;28;20499;-62
2023/09/17 04:43:29;;;;;;;0.80;0.40;;;;;;;-143.84;81.64;45136.66;5091412;28;21359;-62
2023/09/17 04:45:58;;;;;;;0.80;0.40;;;;;;;-143.84;81.38;45102.38;5098408;28;20532;-62
2023/09/17 04:48:25;;;;;;;0.80;0.50;;;;;;;-143.84;81.13;45127.13;5094561;28;20466;-62
2023/09/17 04:50:52;;;;;;;0.80;0.40;;;;;;;-143.84;80.68;45106.19;5096409;28;20487;-62
2023/09/17 04:53:20;;;;;;;0.80;0.30;;;;;;;-143.84;78.40;45104.28;5095282;28;20942;-62
2023/09/17 04:55:47;;;;;;;0.80;0.40;;;;;;;-143.84;77.72;45108.09;5092611;28;20444;-62
2023/09/17 04:58:16;;;;;;;0.80;0.40;;;;;;;-143.84;75.46;45100.47;5094101;28;20499;-62
2023/09/17 05:00:44;;;;;;;0.80;0.30;;;;;;;-143.84;73.87;45102.38;5097942;28;20436;-62
2023/09/17 05:03:11;;;;;;;0.80;0.30;;;;;;;-143.84;71.77;45104.28;5099279;28;20978;-61
2023/09/17 05:05:38;;;;;;;0.80;0.30;;;;;;;-143.84;68.87;45090.97;5096618;28;20527;-61
2023/09/17 05:08:07;;;;;;;0.80;0.40;;;;;;;-143.84;69.00;45070.00;5092467;28;20892;-62
2023/09/17 05:10:36;;;;;;;0.80;0.40;;;;;;;-143.84;67.32;45092.88;5088201;28;20562;-62
2023/09/17 05:13:03;;;;;;;0.80;0.30;;;;;;;-143.84;65.82;45098.56;5095767;28;20451;-62
2023/09/17 05:15:30;;;;;;;0.80;0.30;;;;;;;-143.84;65.20;45068.13;5099738;28;20444;-62
2023/09/17 05:17:57;;;;;;;0.80;0.30;;;;;;;-143.84;63.55;45089.06;5097589;28;20536;-62
2023/09/17 05:20:25;;;;;;;0.80;0.30;;;;;;;-143.84;63.06;45075.72;5100367;28;20580;-62
2023/09/17 05:22:52;;;;;;;0.90;0.30;;;;;;;-143.84;62.35;45083.34;5101783;28;20960;-62
2023/09/17 05:25:19;;;;;;;0.90;0.40;;;;;;;-143.84;62.14;45075.72;5096961;28;20440;-62
2023/09/17 05:27:48;;;;;;;0.90;0.30;;;;;;;-143.84;61.32;45050.97;5106158;28;21050;-62
2023/09/17 05:30:15;;;;;;;0.90;0.30;;;;;;;-143.84;60.41;45054.78;5096208;28;20448;-62
2023/09/17 05:32:43;;;;;;;0.90;0.30;;;;;;;-143.84;59.73;45062.41;5099034;28;20816;-62
2023/09/17 05:35:10;;;;;;;0.90;0.30;;;;;;;-143.84;58.87;45054.78;5096162;28;20447;-62
2023/09/17 05:37:38;;;;;;;0.90;0.40;;;;;;;-143.84;58.54;45028.13;5096451;28;20440;-62
2023/09/17 05:40:06;;;;;;;0.90;0.30;;;;;;;-143.84;57.70;45050.97;5095831;28;20448;-62
2023/09/17 05:42:33;;;;;;;0.90;0.30;;;;;;;-143.84;56.57;45028.13;5097912;28;20535;-61
2023/09/17 05:45:03;;;;;;;0.90;0.30;;;;;;;-143.84;55.63;45058.59;5093741;28;20455;-62
2023/09/17 05:47:30;;;;;;;0.90;0.30;;;;;;;-143.84;55.35;45049.06;5099608;28;20452;-62
2023/09/17 05:49:59;;;;;;;0.90;0.30;;;;;;;-143.84;54.57;45028.13;5099982;28;20492;-62
2023/09/17 05:52:26;;;;;;;0.90;0.30;;;;;;;-143.84;53.78;45054.78;5100477;28;21464;-61
2023/09/17 05:54:53;;;;;;;0.90;0.30;;;;;;;-143.84;54.21;45016.69;5102395;28;20546;-62
2023/09/17 05:57:20;;;;;;;0.90;0.40;;;;;;;-143.84;54.21;45031.94;5096730;28;20454;-61
2023/09/17 05:59:47;;;;;;;0.90;0.40;;;;;;;-143.84;54.67;45045.25;5101151;28;20511;-62
2023/09/17 06:02:16;;;;;;;0.90;0.30;;;;;;;-143.84;54.69;45033.84;5101220;28;20442;-61
2023/09/17 06:04:47;;;;;;;0.90;0.40;;;;;;;-143.84;54.57;45037.66;5101108;28;20493;-61
2023/09/17 06:07:14;;;;;;;0.90;0.40;;;;;;;-143.84;55.22;45033.84;5102331;28;20443;-61
2023/09/17 06:09:41;;;;;;;0.90;0.30;;;;;;;-143.84;56.88;45045.25;5103134;28;20456;-61
2023/09/17 06:12:09;;;;;;;0.90;0.30;;;;;;;-143.84;56.57;45043.34;5098637;28;20506;-61
2023/09/17 06:14:36;;;;;;;0.90;0.30;;;;;;;-143.84;57.37;45030.03;5100065;28;20998;-62
2023/09/17 06:17:04;;;;;;;0.90;0.30;;;;;;;-143.84;57.37;45054.78;5098591;28;20452;-62
2023/09/17 06:19:33;;;;;;;0.90;0.30;;;;;;;-143.84;57.83;45022.41;5099773;28;20479;-61
2023/09/17 06:22:00;;;;;;;0.90;0.30;;;;;;;-143.84;59.07;45054.78;5096564;28;20530;-62
2023/09/17 06:24:27;;;;;;;0.90;0.30;;;;;;;-143.84;60.43;45062.41;5093968;28;20443;-62
2023/09/17 06:26:55;;;;;;;0.90;0.33;;;;;;;-143.84;60.68;45052.88;5099208;28;20447;-61
2023/09/17 06:29:22;;;;;;;0.90;0.30;;;;;;;-143.84;61.04;45035.75;5095838;28;20853;-61
2023/09/17 06:31:50;;;;;;;0.90;0.30;;;;;;;-143.84;62.58;45060.50;5101120;28;20475;-61
2023/09/17 06:34:17;;;;;;;0.90;0.30;;;;;;;-143.84;63.60;45039.53;5101127;28;20438;-61
2023/09/17 06:36:46;;;;;;;0.90;0.40;;;;;;;-143.84;64.19;45062.41;5100268;28;20486;-62
2023/09/17 06:39:13;;;;;;;0.90;0.30;;;;;;;-143.84;63.51;45062.41;5099717;28;20944;-61
2023/09/17 06:41:40;;;;;;;0.90;0.30;;;;;;;-143.84;64.40;45049.06;5092511;28;20436;-61
2023/09/17 06:44:07;;;;;;;0.90;0.30;;;;;;;-143.84;64.79;45049.06;5098305;28;20439;-61
2023/09/17 06:46:34;;;;;;;0.90;0.30;;;;;;;-143.84;64.45;45049.06;5098837;28;20505;-61
2023/09/17 06:49:01;;;;;;;0.90;0.30;;;;;;;-143.84;62.64;45056.69;5103230;28;20443;-61
2023/09/17 06:51:28;;;;;;;0.90;0.30;;;;;;;-143.84;61.15;45037.66;5098707;28;20487;-61
2023/09/17 06:53:57;;;;;;;0.90;0.30;;;;;;;-143.84;60.03;45033.84;5099939;28;20594;-61
2023/09/17 06:56:24;;;;;;;0.90;0.30;;;;;;;-143.84;58.94;45049.06;5102149;28;20491;-61
2023/09/17 06:58:51;;;;;;;0.90;0.30;;;;;;;-143.84;58.91;45050.97;5100120;28;20451;-62
2023/09/17 07:01:19;;;;;;;0.90;0.30;;;;;;;-143.84;58.06;45050.97;5098985;28;20456;-62
2023/09/17 07:03:46;;;;;;;0.90;0.47;;;;;;;-143.84;57.86;45014.78;5101265;28;20962;-62
2023/09/17 07:06:13;;;;;;;0.90;0.30;;;;;;;-143.84;57.91;45043.34;5098521;28;20464;-62
2023/09/17 07:08:40;;;;;;;0.90;0.30;;;;;;;-143.84;56.91;45022.41;5102537;28;20451;-62
2023/09/17 07:11:09;;;;;;;0.90;0.30;;;;;;;-143.84;55.79;45022.41;5098886;28;20536;-61
2023/09/17 07:13:38;;;;;;;0.90;0.30;;;;;;;-143.84;55.45;45018.59;5089598;28;20515;-62
2023/09/17 07:16:05;;;;;;;0.90;0.30;;;;;;;-143.84;55.94;45009.09;5094076;28;20447;-62
2023/09/17 07:18:34;;;;;;;0.90;0.30;;;;;;;-143.84;56.20;45052.88;5097263;28;21174;-62
2023/09/17 07:21:01;;;;;;;0.90;0.30;;;;;;;-143.84;55.40;45039.53;5100147;28;20451;-61
2023/09/17 07:23:29;;;;;;;0.90;0.30;;;;;;;-143.84;56.74;45026.22;5099237;28;20436;-62
2023/09/17 07:25:56;;;;;;;0.90;0.30;;;;;;;-143.84;57.53;45033.84;5101022;28;20449;-61
2023/09/17 07:28:25;;;;;;;0.90;0.30;;;;;;;-143.84;58.29;45041.44;5095048;28;20497;-62
2023/09/17 07:30:55;;;;;;;0.90;0.30;;;;;;;-143.84;59.82;45035.75;5101513;28;20470;-62
2023/09/17 07:33:23;;;;;;;0.90;0.30;;;;;;;-143.84;61.29;45033.84;5092423;28;20489;-62
2023/09/17 07:35:50;;;;;;;0.90;0.30;;;;;;;-143.84;61.44;45050.97;5093992;28;20442;-61
2023/09/17 07:38:17;;;;;;;0.90;0.30;;;;;;;-143.84;61.87;45056.69;5096781;28;20976;-62
2023/09/17 07:40:44;;;;;;;0.90;0.40;;;;;;;-143.84;62.71;45035.75;5098345;28;21201;-62
2023/09/17 07:43:12;;;;;;;0.90;0.30;;;;;;;-143.84;63.60;45052.88;5090871;28;20452;-61
2023/09/17 07:45:40;;;;;;;0.90;0.30;;;;;;;-143.84;64.08;45033.84;5098939;28;21036;-62
2023/09/17 07:48:07;;;;;;;0.90;0.30;;;;;;;-143.84;62.12;45043.34;5095961;28;20455;-62
2023/09/17 07:50:35;;;;;;;0.90;0.30;;;;;;;-143.84;60.37;45045.25;5098461;28;20509;-61
2023/09/17 07:53:02;;;;;;;0.90;0.30;;;;;;;-143.84;61.19;45041.44;5094471;28;20493;-61
2023/09/17 07:55:30;;;;;;;0.90;0.30;;;;;;;-143.84;62.60;45033.84;5097921;28;20454;-61
2023/09/17 07:57:57;;;;;;;0.90;0.30;;;;;;;-143.84;62.92;45062.41;5100403;28;20484;-62
2023/09/17 08:00:24;;;;;;;0.90;0.40;;;;;;;-143.84;61.07;45033.84;5094617;28;20439;-61
2023/09/17 08:02:53;;;;;;;0.90;0.40;;;;;;;-143.84;62.14;45049.06;5098553;28;20446;-62
2023/09/17 08:05:20;;;;;;;0.90;0.30;;;;;;;-143.84;58.55;45018.59;5098222;28;20440;-62
2023/09/17 08:07:48;;;;;;;0.90;0.30;;;;;;;-143.84;57.19;45030.03;5097366;28;20444;-62
2023/09/17 08:10:15;;;;;;;0.90;0.30;;;;;;;-143.84;54.92;45007.19;5089523;28;20523;-62
2023/09/17 08:12:42;;;;;;;0.90;0.30;;;;;;;-143.84;54.31;45001.47;5098033;28;20476;-62
2023/09/17 08:15:09;;;;;;;0.90;0.40;;;;;;;-143.84;52.96;44995.75;5100721;28;21012;-62
2023/09/17 08:17:37;;;;;;;0.90;0.30;;;;;;;-143.84;50.56;45005.28;5092360;28;21004;-62
2023/09/17 08:20:09;;;;;;;0.90;0.30;;;;;;;-143.84;51.61;45005.28;5097560;28;20448;-62
2023/09/17 08:22:37;;;;;;;0.90;0.30;;;;;;;-143.84;50.21;44986.22;5092415;28;20455;-62
2023/09/17 08:25:05;;;;;;;0.90;0.30;;;;;;;-143.84;49.12;44982.41;5097555;28;20888;-62
2023/09/17 08:27:33;;;;;;;0.90;0.30;;;;;;;-143.84;49.21;45007.19;5099263;28;20443;-62
2023/09/17 08:30:03;;;;;;;0.90;0.60;;;;;;;-143.84;49.28;44984.31;5094298;28;20444;-62
2023/09/17 08:32:31;;;;;;;0.90;0.30;;;;;;;-143.84;48.79;45007.19;5098539;28;20511;-62
2023/09/17 08:34:59;;;;;;;0.90;0.30;;;;;;;-143.84;48.85;44990.03;5099228;28;20447;-61
2023/09/17 08:37:27;;;;;;;0.90;0.30;;;;;;;-143.84;49.57;45003.38;5092913;28;20451;-62
2023/09/17 08:39:54;;;;;;;0.90;0.30;;;;;;;-143.84;49.22;44995.75;5098613;28;21125;-62
2023/09/17 08:42:22;;;;;;;0.90;0.30;;;;;;;-143.84;48.80;44965.28;5095395;28;20455;-62
2023/09/17 08:44:51;;;;;;;0.90;0.30;;;;;;;-143.84;48.12;44995.75;5097142;28;21000;-61
2023/09/17 08:47:18;;;;;;;0.90;0.30;;;;;;;-143.84;47.74;44988.13;5091125;28;20450;-62
2023/09/17 08:49:45;;;;;;;0.90;0.30;;;;;;;-143.84;47.78;44995.75;5100057;28;20432;-62
2023/09/17 08:52:14;;;;;;;0.90;0.30;;;;;;;-143.84;47.69;45003.38;5096519;28;20482;-61
2023/09/17 08:54:44;;;;;;;0.90;0.30;;;;;;;-143.84;48.26;44986.22;5098543;28;20451;-62
2023/09/17 08:57:13;;;;;;;0.90;0.30;;;;;;;-143.84;48.13;44980.53;5094246;28;20490;-62
2023/09/17 08:59:45;;;;;;;0.90;0.30;;;;;;;-143.84;47.63;45005.28;5091116;28;20448;-62
2023/09/17 09:02:18;;;;;;;0.90;0.30;;;;;;;-143.84;48.06;45001.47;5096533;28;20465;-61
2023/09/17 09:04:50;;;;;;;0.90;0.30;;;;;;;-143.84;47.94;45009.09;5097733;28;20497;-61
2023/09/17 09:07:22;;;;;;;0.90;0.30;;;;;;;-143.84;49.01;44990.03;5093140;28;20448;-62
2023/09/17 09:09:52;;;;;;;0.90;0.30;;;;;;;-143.84;48.60;44986.22;5099064;28;20436;-61
2023/09/17 09:12:20;;;;;;;0.90;0.30;;;;;;;-143.84;48.16;44995.75;5096610;28;20482;-62
2023/09/17 09:14:48;;;;;;;0.90;0.30;;;;;;;-143.84;47.77;44991.94;5095482;28;20446;-61
2023/09/17 09:17:15;;;;;;;0.90;0.30;;;;;;;-143.84;46.94;44999.56;5092328;28;20451;-62
2023/09/17 09:19:42;;;;;;;0.90;0.30;;;;;;;-143.84;46.75;45001.47;5097593;28;20448;-62
2023/09/17 09:22:10;;;;;;;0.90;0.30;;;;;;;-143.84;46.01;44971.00;5098908;28;20450;-61
2023/09/17 09:24:47;;;;;;;0.90;0.30;;;;;;;-143.84;46.46;44955.75;5092290;28;20831;-62
2023/09/17 09:27:15;;;;;;;0.90;0.30;;;;;;;-143.84;45.81;44953.88;5089428;28;20497;-62
2023/09/17 09:29:43;;;;;;;1.07;0.47;;;;;;;-143.84;46.53;44990.03;5096809;28;20447;-61
2023/09/17 09:32:11;;;;;;;0.90;0.30;;;;;;;-143.84;46.32;44980.53;5099336;28;20481;-61
2023/09/17 09:34:39;;;;;;;0.90;0.30;;;;;;;-143.84;46.08;44961.47;5090510;28;20455;-61
2023/09/17 09:37:08;;;;;;;0.90;0.30;;;;;;;-143.84;47.46;44997.66;5092483;28;20501;-62
2023/09/17 09:39:36;;;;;;;0.90;0.30;;;;;;;-143.84;46.38;44984.31;5091691;28;20439;-61
2023/09/17 09:42:03;;;;;;;0.80;0.30;;;;;;;-143.84;45.75;44974.81;5093070;28;20543;-61
2023/09/17 09:44:32;;;;;;;0.90;0.30;;;;;;;-143.84;45.51;44969.09;5089045;28;20448;-62
2023/09/17 09:47:02;;;;;;;0.80;0.30;;;;;;;-143.84;45.97;44982.41;5090810;28;20519;-62
2023/09/17 09:49:29;;;;;;;0.87;0.30;;;;;;;-143.84;47.19;44991.94;5091313;28;20456;-62
2023/09/17 09:51:59;;;;;;;0.90;0.30;;;;;;;-143.84;48.48;45010.97;5090684;28;20834;-62
2023/09/17 09:54:26;;;;;;;0.90;0.30;;;;;;;-143.84;48.04;44991.94;5089126;28;20991;-62
2023/09/17 09:56:53;;;;;;;0.90;0.50;;;;;;;-143.84;49.80;44959.56;5088800;28;20867;-62
2023/09/17 09:59:22;;;;;;;0.90;0.30;;;;;;;-143.84;51.03;44976.72;5092726;28;20447;-62
2023/09/17 10:01:50;;;;;;;0.90;0.40;;;;;;;-143.84;51.70;44967.19;5090657;28;20435;-62
2023/09/17 10:04:19;;;;;;;0.90;0.30;;;;;;;-143.84;52.10;44986.22;5094180;28;20439;-61
2023/09/17 10:06:47;;;;;;;0.90;0.30;;;;;;;-143.84;51.56;44988.13;5094644;28;20455;-62
2023/09/17 10:09:16;;;;;;;0.90;0.30;;;;;;;-143.84;50.85;44980.53;5096729;28;21753;-62
2023/09/17 10:11:43;;;;;;;0.90;0.30;;;;;;;-143.84;50.88;45007.19;5093120;28;20435;-62
2023/09/17 10:14:11;;;;;;;0.90;0.30;;;;;;;-143.84;52.04;44980.53;5095688;28;20472;-62
2023/09/17 10:16:41;;;;;;;0.90;0.30;;;;;;;-143.84;52.66;44986.22;5091222;28;21142;-62
2023/09/17 10:19:11;;;;;;;0.90;0.30;;;;;;;-143.84;53.07;45028.13;5098553;28;20486;-62
2023/09/17 10:21:40;;;;;;;0.90;0.40;;;;;;;-143.84;52.38;45012.88;5093517;28;20444;-62
2023/09/17 10:24:09;;;;;;;0.90;0.40;;;;;;;-143.84;52.33;45014.78;5093920;28;20447;-61
2023/09/17 10:26:42;;;;;;;0.90;0.33;;;;;;;-143.84;53.98;45018.59;5094373;28;20465;-62
2023/09/17 10:29:10;;;;;;;0.90;0.30;;;;;;;-143.84;54.71;45009.09;5091700;28;20523;-62
2023/09/17 10:31:38;;;;;;;0.90;0.30;;;;;;;-143.84;56.20;45047.16;5097981;28;20526;-62
2023/09/17 10:34:06;;;;;;;1.00;0.43;;;;;;;-143.84;57.48;45010.97;5096346;28;20586;-62
2023/09/17 10:36:37;;;;;;;0.90;0.40;;;;;;;-143.84;58.74;45024.31;5095811;28;20972;-61
2023/09/17 10:39:09;;;;;;;0.90;0.30;;;;;;;-143.84;59.48;45031.94;5096422;28;20448;-62
2023/09/17 10:41:37;;;;;;;0.90;0.30;;;;;;;-143.84;59.88;45026.22;5099476;28;20440;-62
2023/09/17 10:44:07;;;;;;;0.90;0.30;;;;;;;-143.84;59.88;45020.50;5099984;28;20496;-61
2023/09/17 10:46:36;;;;;;;0.90;0.30;;;;;;;-143.84;59.42;45010.97;5098660;28;20496;-62
2023/09/17 10:49:05;;;;;;;0.90;0.30;;;;;;;-143.84;58.58;45035.75;5096334;28;20502;-62
2023/09/17 10:51:34;;;;;;;0.90;0.30;;;;;;;-143.84;57.03;45030.03;5097377;28;20444;-61
2023/09/17 10:54:03;;;;;;;0.90;0.30;;;;;;;-143.84;56.64;45022.41;5099221;28;20506;-62
2023/09/17 10:56:31;;;;;;;0.90;0.30;;;;;;;-143.84;55.51;45033.84;5096961;28;20550;-62
2023/09/17 10:58:59;;;;;;;0.90;0.30;;;;;;;-143.84;54.95;45024.31;5095653;28;20507;-62
2023/09/17 11:01:31;;;;;;;0.90;0.30;;;;;;;-143.84;53.46;45047.16;5096261;28;20994;-62
2023/09/17 11:04:03;;;;;;;0.90;0.40;;;;;;;-143.84;53.40;45014.78;5097401;28;20455;-62
2023/09/17 11:06:34;;;;;;;0.90;0.30;;;;;;;-143.84;54.57;44995.75;5094245;28;20820;-62
2023/09/17 11:09:04;;;;;;;0.90;0.30;;;;;;;-143.84;55.20;45028.13;5094684;28;20471;-62
2023/09/17 11:11:33;;;;;;;0.90;0.30;;;;;;;-143.84;54.32;45014.78;5091877;28;20464;-62
2023/09/17 11:14:00;;;;;;;0.90;0.30;;;;;;;-143.84;53.87;45024.31;5096196;28;20898;-62
2023/09/17 11:16:31;;;;;;;0.90;0.30;;;;;;;-143.84;52.73;45018.59;5093905;28;20940;-62
2023/09/17 11:19:05;;;;;;;0.90;0.40;;;;;;;-143.84;52.92;45037.66;5093497;28;20491;-62
2023/09/17 11:21:35;;;;;;;0.90;0.30;;;;;;;-143.84;52.54;45043.34;5093489;28;20462;-61